Browns Valley, Minnesota
Current Conditions -  °F | °C
As of 6:56 AM on Wednesday 26 Nov 2014 (Local Time) from KETH Reporting Station
Light Snow Light Snow  
Wind Chill: -11°   Ceiling: 700
Heat Index:   Visibility: 7mi
Dew Point:   Wind: 21mph
Humidity: 92%   Direction: 330°NNW
Pressure: 30.22"   Gusts: 28mph
Location:  45.6°N, 96.83°W
Report Text: KETH 261256Z AUTO 33018G24KT 7SM -SN OVC007 M13/M14 A3022 RMK AO2
Loading
Personal Weather Stations






























Interactive Weather Map New forecast layout! Learn more

10-Day Weather Forecast

Advertisements
Track Severe Weather on mobile